Time;durP1;ratioP1;P1;durP2;ratioP2;P2;SDS_P1;SDS_P2;PMS_P1;PMS_P2;Temp;Humidity;BMP_temperature;BMP_pressure;BME280_temperature;BME280_humidity;BME280_pressure;Samples;Min_cycle;Max_cycle;Signal;HPM_P1;HPM_P2
2021/07/30 00:01:37;;;;;;;3.67;3.30;;;18.50;70.50;;;;;;4929964;29;20495;-45
2021/07/30 00:04:05;;;;;;;3.17;2.77;;;18.40;70.70;;;;;;4930233;29;20584;-44
2021/07/30 00:06:32;;;;;;;3.20;2.90;;;18.40;70.80;;;;;;4928959;29;20890;-43
2021/07/30 00:08:59;;;;;;;6.50;3.03;;;18.30;70.80;;;;;;4930634;29;20535;-45
2021/07/30 00:11:26;;;;;;;4.80;3.50;;;18.30;71.10;;;;;;4930380;29;20460;-43
2021/07/30 00:13:53;;;;;;;3.50;3.20;;;18.30;71.20;;;;;;4929231;29;20833;-44
2021/07/30 00:16:20;;;;;;;5.17;3.20;;;18.30;71.30;;;;;;4930657;29;20457;-43
2021/07/30 00:18:47;;;;;;;5.93;2.87;;;18.20;71.40;;;;;;4930288;29;20468;-43
2021/07/30 00:21:14;;;;;;;4.60;3.10;;;18.20;71.40;;;;;;4928036;29;22136;-43
2021/07/30 00:23:40;;;;;;;3.43;2.80;;;18.10;71.40;;;;;;4928305;29;20840;-43
2021/07/30 00:26:07;;;;;;;3.80;3.40;;;18.10;71.50;;;;;;4931917;29;20837;-44
2021/07/30 00:28:34;;;;;;;4.60;3.03;;;18.10;71.70;;;;;;4927874;29;20472;-43
2021/07/30 00:31:01;;;;;;;4.80;3.23;;;18.00;71.90;;;;;;4929040;29;20546;-43
2021/07/30 00:33:28;;;;;;;6.00;3.17;;;18.00;72.00;;;;;;4927864;29;20495;-43
2021/07/30 00:35:55;;;;;;;3.30;3.00;;;18.00;72.20;;;;;;4930597;29;20472;-44
2021/07/30 00:38:22;;;;;;;5.27;3.20;;;18.00;72.40;;;;;;4932792;29;20992;-43
2021/07/30 00:40:49;;;;;;;7.90;2.80;;;17.90;72.60;;;;;;4931464;29;20464;-43
2021/07/30 00:43:17;;;;;;;5.43;3.77;;;17.90;72.50;;;;;;4941751;29;20980;-45
2021/07/30 00:45:44;;;;;;;4.13;3.00;;;17.90;72.50;;;;;;4937772;29;20856;-43
2021/07/30 00:48:13;;;;;;;3.93;2.90;;;17.90;72.80;;;;;;4936289;29;20950;-43
2021/07/30 00:50:42;;;;;;;3.60;3.13;;;17.80;72.80;;;;;;4935451;29;20478;-43
2021/07/30 00:53:08;;;;;;;4.33;3.27;;;17.80;72.90;;;;;;4935857;29;20471;-43
2021/07/30 00:55:36;;;;;;;4.83;3.37;;;17.80;73.10;;;;;;4935155;29;20475;-43
2021/07/30 00:58:03;;;;;;;4.17;3.70;;;17.80;73.20;;;;;;4937582;29;20475;-43
2021/07/30 01:00:30;;;;;;;4.13;3.73;;;17.70;73.30;;;;;;4934407;29;20498;-45
2021/07/30 01:03:00;;;;;;;3.90;3.50;;;17.70;73.30;;;;;;4936584;29;20462;-43
2021/07/30 01:05:30;;;;;;;5.23;3.10;;;17.70;73.40;;;;;;4936353;29;21048;-43
2021/07/30 01:07:57;;;;;;;4.50;2.90;;;17.70;73.60;;;;;;4936100;29;20452;-44
2021/07/30 01:10:24;;;;;;;5.70;3.50;;;17.70;73.60;;;;;;4936679;29;20503;-43
2021/07/30 01:12:51;;;;;;;6.37;3.73;;;17.70;73.70;;;;;;4937293;29;20554;-46
2021/07/30 01:15:18;;;;;;;3.67;3.33;;;17.60;73.70;;;;;;4931298;29;20563;-45
2021/07/30 01:17:45;;;;;;;3.10;2.83;;;17.60;73.60;;;;;;4931988;29;20463;-44
2021/07/30 01:20:12;;;;;;;3.43;3.13;;;17.60;73.70;;;;;;4935561;29;20456;-43
2021/07/30 01:22:53;;;;;;;5.00;2.90;;;17.50;73.80;;;;;;4932054;29;20500;-43
2021/07/30 01:25:21;;;;;;;3.87;3.47;;;17.50;74.10;;;;;;4935031;29;20487;-44
2021/07/30 01:27:50;;;;;;;3.57;2.93;;;17.50;74.10;;;;;;4936265;29;20522;-44
2021/07/30 01:30:18;;;;;;;4.00;3.60;;;17.40;74.00;;;;;;4936205;29;20542;-44
2021/07/30 01:32:46;;;;;;;4.63;3.20;;;17.40;74.20;;;;;;4936044;29;20474;-44
2021/07/30 01:35:13;;;;;;;3.70;3.40;;;17.40;74.30;;;;;;4936735;29;20492;-44
2021/07/30 01:37:40;;;;;;;7.93;3.67;;;17.40;74.20;;;;;;4935274;29;20472;-44
2021/07/30 01:40:09;;;;;;;4.00;3.70;;;17.30;74.20;;;;;;4935866;29;20456;-43
2021/07/30 01:42:39;;;;;;;3.77;3.37;;;17.30;74.20;;;;;;4937626;29;20511;-43
2021/07/30 01:45:08;;;;;;;6.27;3.33;;;17.30;74.20;;;;;;4935241;29;20490;-43
2021/07/30 01:47:35;;;;;;;4.63;3.63;;;17.20;74.30;;;;;;4933490;29;20496;-45
2021/07/30 01:50:03;;;;;;;5.70;3.63;;;17.20;74.50;;;;;;4932334;29;20470;-44
2021/07/30 01:52:30;;;;;;;3.97;3.37;;;17.20;74.50;;;;;;4935653;29;21000;-44
2021/07/30 01:54:57;;;;;;;4.43;3.83;;;17.20;74.40;;;;;;4933860;29;20892;-44
2021/07/30 01:57:25;;;;;;;3.47;3.10;;;17.20;74.40;;;;;;4932081;29;20475;-44
2021/07/30 01:59:52;;;;;;;3.47;3.17;;;17.20;74.50;;;;;;4933774;29;20510;-43
2021/07/30 02:02:21;;;;;;;3.90;3.50;;;17.10;74.60;;;;;;4934537;29;20547;-43
2021/07/30 02:04:48;;;;;;;4.57;3.60;;;17.10;74.50;;;;;;4928414;29;20480;-45
2021/07/30 02:07:18;;;;;;;4.33;3.50;;;17.10;74.70;;;;;;4929832;29;20865;-45
2021/07/30 02:09:45;;;;;;;3.33;3.03;;;17.10;74.90;;;;;;4932345;29;20563;-45
2021/07/30 02:12:15;;;;;;;3.70;3.40;;;17.00;75.00;;;;;;4931243;29;20510;-44
2021/07/30 02:14:42;;;;;;;4.43;3.33;;;17.00;75.10;;;;;;4932423;29;20460;-43
2021/07/30 02:17:09;;;;;;;3.90;3.60;;;17.00;75.00;;;;;;4930775;29;20475;-46
2021/07/30 02:19:35;;;;;;;5.63;3.77;;;16.90;75.00;;;;;;4916098;29;20476;-45
2021/07/30 02:22:02;;;;;;;5.17;3.80;;;16.90;75.10;;;;;;4931217;29;20887;-43
2021/07/30 02:24:29;;;;;;;5.90;4.23;;;16.90;75.30;;;;;;4933833;29;20578;-43
2021/07/30 02:26:56;;;;;;;5.67;3.70;;;16.90;75.30;;;;;;4931604;29;20462;-45
2021/07/30 02:29:23;;;;;;;4.17;3.57;;;16.90;75.50;;;;;;4918480;29;20552;-44
2021/07/30 02:31:50;;;;;;;7.13;3.53;;;16.90;75.50;;;;;;4933061;29;20535;-42
2021/07/30 02:34:17;;;;;;;9.27;3.53;;;16.90;75.70;;;;;;4932303;29;20506;-45
2021/07/30 02:36:44;;;;;;;3.40;3.10;;;16.90;75.80;;;;;;4932721;29;20466;-45
2021/07/30 02:39:11;;;;;;;4.30;3.13;;;16.80;75.80;;;;;;4930476;29;20492;-44
2021/07/30 02:41:38;;;;;;;3.90;3.60;;;16.80;75.90;;;;;;4931902;29;20462;-41
2021/07/30 02:44:05;;;;;;;4.97;3.70;;;16.80;76.10;;;;;;4931904;29;20484;-45
2021/07/30 02:46:32;;;;;;;4.10;3.70;;;16.80;76.20;;;;;;4931080;29;20957;-44
2021/07/30 02:48:59;;;;;;;3.53;3.23;;;16.80;76.20;;;;;;4931678;29;20524;-45
2021/07/30 02:51:26;;;;;;;4.10;3.70;;;16.80;76.20;;;;;;4933284;29;20563;-45
2021/07/30 02:53:52;;;;;;;3.77;3.33;;;16.80;76.20;;;;;;4931596;29;20459;-45
2021/07/30 02:56:19;;;;;;;5.30;4.37;;;16.80;76.20;;;;;;4931272;29;20551;-44
2021/07/30 02:58:48;;;;;;;3.80;3.50;;;16.70;76.20;;;;;;4931257;29;20500;-44
2021/07/30 03:01:15;;;;;;;9.30;4.20;;;16.70;76.30;;;;;;4930068;29;20495;-42
2021/07/30 03:03:42;;;;;;;3.90;3.60;;;16.70;76.30;;;;;;4931442;29;20460;-43
2021/07/30 03:06:09;;;;;;;5.17;3.40;;;16.70;76.10;;;;;;4930813;29;20464;-43
2021/07/30 03:08:36;;;;;;;4.70;3.20;;;16.60;76.10;;;;;;4933643;29;20523;-43
2021/07/30 03:11:03;;;;;;;6.83;3.30;;;16.60;76.20;;;;;;4932941;29;20547;-43
2021/07/30 03:13:30;;;;;;;5.30;3.80;;;16.50;76.20;;;;;;4929617;29;20479;-43
2021/07/30 03:15:57;;;;;;;5.10;4.03;;;16.50;76.30;;;;;;4931576;29;20937;-43
2021/07/30 03:18:26;;;;;;;3.90;3.17;;;16.50;76.30;;;;;;4916204;29;20491;-42
2021/07/30 03:20:53;;;;;;;4.77;3.67;;;16.40;76.30;;;;;;4931525;29;20520;-43
2021/07/30 03:23:20;;;;;;;11.30;3.23;;;16.40;76.30;;;;;;4930697;29;21003;-43
2021/07/30 03:25:47;;;;;;;5.53;3.90;;;16.40;76.40;;;;;;4927083;29;20487;-43
2021/07/30 03:28:14;;;;;;;3.83;3.53;;;16.40;76.50;;;;;;4929017;29;20469;-44
2021/07/30 03:30:41;;;;;;;5.13;3.27;;;16.30;76.60;;;;;;4917531;29;20502;-42
2021/07/30 03:33:07;;;;;;;3.67;3.00;;;16.30;76.60;;;;;;4932932;29;20540;-43
2021/07/30 03:35:34;;;;;;;4.10;3.33;;;16.30;76.60;;;;;;4930162;29;20470;-43
2021/07/30 03:38:01;;;;;;;5.17;3.33;;;16.30;76.70;;;;;;4931784;29;20464;-42
2021/07/30 03:40:28;;;;;;;4.40;4.00;;;16.20;76.80;;;;;;4930283;29;20555;-43
2021/07/30 03:42:55;;;;;;;4.33;3.37;;;16.20;76.80;;;;;;4932819;29;20826;-43
2021/07/30 03:45:22;;;;;;;3.10;2.80;;;16.20;76.80;;;;;;4931674;29;20512;-43
2021/07/30 03:47:48;;;;;;;3.27;2.67;;;16.20;76.90;;;;;;4933166;29;20460;-43
2021/07/30 03:50:15;;;;;;;4.40;3.47;;;16.20;77.00;;;;;;4927595;29;21071;-42
2021/07/30 03:52:42;;;;;;;6.40;4.07;;;16.20;77.00;;;;;;4929205;29;20503;-43
2021/07/30 03:55:09;;;;;;;3.80;3.50;;;16.20;77.00;;;;;;4918909;29;20461;-43
2021/07/30 03:57:36;;;;;;;3.30;3.00;;;16.20;77.00;;;;;;4931309;29;20478;-43
2021/07/30 04:00:04;;;;;;;3.53;3.23;;;16.20;77.00;;;;;;4927799;29;20497;-42
2021/07/30 04:02:31;;;;;;;3.80;3.27;;;16.20;77.00;;;;;;4926730;29;20507;-42
2021/07/30 04:04:58;;;;;;;4.67;3.17;;;16.20;76.90;;;;;;4927970;29;20494;-42
2021/07/30 04:07:25;;;;;;;3.30;3.00;;;16.10;76.90;;;;;;4914961;29;20460;-43
2021/07/30 04:09:54;;;;;;;4.00;2.90;;;16.10;76.90;;;;;;4928846;29;20555;-42
2021/07/30 04:12:21;;;;;;;3.50;3.07;;;16.10;76.80;;;;;;4931099;29;20965;-42
2021/07/30 04:14:48;;;;;;;3.60;3.27;;;16.10;76.80;;;;;;4929285;29;20492;-42
2021/07/30 04:17:15;;;;;;;3.70;3.20;;;16.10;76.90;;;;;;4925955;29;20467;-42
2021/07/30 04:19:45;;;;;;;5.37;3.60;;;16.10;76.90;;;;;;4928934;29;20546;-43
2021/07/30 04:22:13;;;;;;;3.90;3.57;;;16.10;77.00;;;;;;4930926;29;20472;-43
2021/07/30 04:24:40;;;;;;;5.00;4.03;;;16.10;77.10;;;;;;4928357;29;20483;-43
2021/07/30 04:27:07;;;;;;;4.27;3.50;;;16.10;77.20;;;;;;4913177;29;20452;-42
2021/07/30 04:29:38;;;;;;;7.27;3.90;;;16.10;77.20;;;;;;4917650;29;20543;-42
2021/07/30 04:32:08;;;;;;;5.17;3.70;;;16.10;77.30;;;;;;4929605;29;20492;-42
2021/07/30 04:34:40;;;;;;;3.80;3.47;;;16.10;77.30;;;;;;4931173;29;20526;-43
2021/07/30 04:37:08;;;;;;;4.57;3.97;;;16.10;77.30;;;;;;4929578;29;21044;-42
2021/07/30 04:39:36;;;;;;;5.80;3.60;;;16.10;77.30;;;;;;4930369;29;20475;-42
2021/07/30 04:42:04;;;;;;;5.80;3.40;;;16.10;77.20;;;;;;4929835;29;20943;-43
2021/07/30 04:44:34;;;;;;;3.50;3.07;;;16.10;77.20;;;;;;4929382;29;20568;-42
2021/07/30 04:47:02;;;;;;;6.13;3.67;;;16.20;77.10;;;;;;4928077;29;20562;-43
2021/07/30 04:49:30;;;;;;;8.70;3.87;;;16.20;77.10;;;;;;4927925;29;20468;-42
2021/07/30 04:52:02;;;;;;;9.23;3.67;;;16.20;77.20;;;;;;4929281;29;20953;-42
2021/07/30 04:54:29;;;;;;;3.80;3.47;;;16.20;77.30;;;;;;4929687;29;20513;-42
2021/07/30 04:56:55;;;;;;;4.47;4.00;;;16.20;77.50;;;;;;4927712;29;20514;-42
2021/07/30 04:59:22;;;;;;;5.77;3.83;;;16.20;77.80;;;;;;4927319;29;21030;-42
2021/07/30 05:01:49;;;;;;;4.30;3.77;;;16.30;77.90;;;;;;4927813;29;20566;-43
2021/07/30 05:04:18;;;;;;;4.40;3.60;;;16.30;78.00;;;;;;4928879;29;20496;-42
2021/07/30 05:06:45;;;;;;;8.00;4.67;;;16.30;78.00;;;;;;4929051;29;20467;-41
2021/07/30 05:09:12;;;;;;;5.30;4.20;;;16.40;78.00;;;;;;4930874;29;20562;-42
2021/07/30 05:11:38;;;;;;;4.23;3.80;;;16.40;78.10;;;;;;4928542;29;21097;-41
2021/07/30 05:14:05;;;;;;;5.07;3.97;;;16.40;78.30;;;;;;4929957;29;20465;-42
2021/07/30 05:16:32;;;;;;;4.53;3.80;;;16.40;78.20;;;;;;4928456;29;20456;-42
2021/07/30 05:18:59;;;;;;;4.87;3.80;;;16.50;78.20;;;;;;4929968;29;20472;-43
2021/07/30 05:21:26;;;;;;;4.50;3.60;;;16.50;78.30;;;;;;4930287;29;20463;-43
2021/07/30 05:23:53;;;;;;;5.03;4.50;;;16.50;78.30;;;;;;4927214;29;20465;-44
2021/07/30 05:26:20;;;;;;;5.30;4.03;;;16.60;78.20;;;;;;4928961;29;20484;-43
2021/07/30 05:28:47;;;;;;;4.67;4.20;;;16.60;78.20;;;;;;4932257;29;20463;-44
2021/07/30 05:31:16;;;;;;;5.13;3.93;;;16.60;78.20;;;;;;4931273;29;20456;-44
2021/07/30 05:33:44;;;;;;;3.73;3.43;;;16.70;78.20;;;;;;4930758;29;20507;-43
2021/07/30 05:36:15;;;;;;;4.77;3.57;;;16.70;78.30;;;;;;4930675;29;21024;-43
2021/07/30 05:38:43;;;;;;;4.07;3.67;;;16.80;78.10;;;;;;4931855;29;20570;-43
2021/07/30 05:41:11;;;;;;;5.10;4.60;;;16.80;78.00;;;;;;4928968;29;20463;-43
2021/07/30 05:43:42;;;;;;;4.77;4.23;;;16.90;77.90;;;;;;4932682;29;20957;-44
2021/07/30 05:46:09;;;;;;;3.93;3.40;;;16.90;77.80;;;;;;4935202;29;20850;-43
2021/07/30 05:48:36;;;;;;;5.47;4.23;;;17.00;77.70;;;;;;4930006;29;21024;-44
2021/07/30 05:51:03;;;;;;;5.33;3.50;;;17.10;77.60;;;;;;4929851;29;20504;-43
2021/07/30 05:53:30;;;;;;;6.53;4.00;;;17.20;76.90;;;;;;4916985;29;20499;-43
2021/07/30 05:55:57;;;;;;;4.77;4.20;;;17.20;76.70;;;;;;4913047;29;20478;-43
2021/07/30 05:58:24;;;;;;;3.97;3.57;;;17.30;76.50;;;;;;4930773;29;20471;-43
2021/07/30 06:00:50;;;;;;;4.90;3.63;;;17.40;76.20;;;;;;4931257;29;20534;-45
2021/07/30 06:03:17;;;;;;;5.53;4.00;;;17.40;76.20;;;;;;4930357;29;20856;-44
2021/07/30 06:05:44;;;;;;;5.10;3.90;;;17.40;75.60;;;;;;4931831;29;20492;-43
2021/07/30 06:08:12;;;;;;;3.90;3.47;;;17.50;75.50;;;;;;4930236;29;20444;-43
2021/07/30 06:10:39;;;;;;;3.90;3.50;;;17.50;75.30;;;;;;4932025;29;21151;-44
2021/07/30 06:13:06;;;;;;;9.83;4.70;;;17.60;74.70;;;;;;4931651;29;20464;-43
2021/07/30 06:15:33;;;;;;;5.63;3.50;;;17.70;74.40;;;;;;4917839;29;21079;-43
2021/07/30 06:18:03;;;;;;;8.23;4.67;;;17.70;74.30;;;;;;4922787;29;21045;-43
2021/07/30 06:20:31;;;;;;;4.13;3.73;;;17.80;74.20;;;;;;4930535;29;21065;-43
2021/07/30 06:22:58;;;;;;;5.37;3.80;;;17.80;74.00;;;;;;4930381;29;20471;-45
2021/07/30 06:25:26;;;;;;;7.50;3.77;;;17.90;73.90;;;;;;4930914;29;20519;-43
2021/07/30 06:27:53;;;;;;;6.77;4.10;;;18.00;73.50;;;;;;4915137;29;20544;-43
2021/07/30 06:30:19;;;;;;;7.77;3.97;;;18.10;73.40;;;;;;4913277;29;20795;-44
2021/07/30 06:32:46;;;;;;;4.43;3.83;;;18.20;73.20;;;;;;4931649;29;20459;-44
2021/07/30 06:35:15;;;;;;;6.13;4.00;;;18.30;73.10;;;;;;4930885;29;20468;-44
2021/07/30 06:37:42;;;;;;;7.90;5.00;;;18.40;73.10;;;;;;4930679;29;20490;-44
2021/07/30 06:40:09;;;;;;;5.90;3.87;;;18.40;72.60;;;;;;4930894;29;20464;-44
2021/07/30 06:42:37;;;;;;;6.33;3.63;;;18.60;71.80;;;;;;4931454;29;20455;-44
2021/07/30 06:45:05;;;;;;;7.33;3.90;;;18.60;72.20;;;;;;4931489;29;20492;-44
2021/07/30 06:47:38;;;;;;;9.30;3.87;;;18.80;71.90;;;;;;4927081;29;20464;-43
2021/07/30 06:50:06;;;;;;;5.87;3.87;;;18.90;71.70;;;;;;4934016;29;20495;-45
2021/07/30 06:52:32;;;;;;;5.90;3.20;;;19.00;71.20;;;;;;4931902;29;20808;-44
2021/07/30 06:55:00;;;;;;;3.90;3.30;;;19.10;70.80;;;;;;4915631;29;20462;-44
2021/07/30 06:57:27;;;;;;;4.03;3.13;;;19.20;70.50;;;;;;4930460;29;20496;-43
2021/07/30 06:59:54;;;;;;;8.10;3.77;;;19.30;70.70;;;;;;4933058;29;20917;-44
2021/07/30 07:02:21;;;;;;;11.23;3.70;;;19.40;70.70;;;;;;4931107;29;20456;-44
2021/07/30 07:04:48;;;;;;;4.60;3.43;;;19.50;70.00;;;;;;4931280;29;20464;-44
2021/07/30 07:07:14;;;;;;;5.87;3.17;;;19.70;68.60;;;;;;4930410;29;20523;-44
2021/07/30 07:09:41;;;;;;;14.70;3.30;;;19.80;68.70;;;;;;4930135;29;20468;-43
2021/07/30 07:12:08;;;;;;;4.73;2.80;;;20.00;67.90;;;;;;4931797;29;21243;-44
2021/07/30 07:14:35;;;;;;;3.90;3.10;;;20.10;67.40;;;;;;4915560;29;20867;-43
2021/07/30 07:17:02;;;;;;;3.30;2.97;;;20.30;67.20;;;;;;4933066;29;21043;-43
2021/07/30 07:19:29;;;;;;;11.27;3.80;;;20.40;67.40;;;;;;4933049;29;20456;-44
2021/07/30 07:21:59;;;;;;;12.40;3.50;;;20.60;66.70;;;;;;4932182;29;20456;-44
2021/07/30 07:24:26;;;;;;;5.60;3.10;;;20.70;66.40;;;;;;4916945;29;20472;-43
2021/07/30 07:26:53;;;;;;;7.37;4.07;;;20.80;66.20;;;;;;4916273;29;20494;-43
2021/07/30 07:29:20;;;;;;;2.90;2.30;;;20.90;65.90;;;;;;4933184;29;20977;-43
2021/07/30 07:31:47;;;;;;;6.87;2.97;;;21.00;65.90;;;;;;4930279;29;20456;-44
2021/07/30 07:34:14;;;;;;;5.27;3.33;;;21.10;65.50;;;;;;4931930;29;20516;-44
2021/07/30 07:36:41;;;;;;;3.77;2.60;;;21.30;64.90;;;;;;4933726;29;20466;-44
2021/07/30 07:39:08;;;;;;;3.77;2.83;;;21.40;64.40;;;;;;4920547;29;20535;-45
2021/07/30 07:41:35;;;;;;;3.43;2.57;;;21.50;64.40;;;;;;4934506;29;20459;-41
2021/07/30 07:44:02;;;;;;;10.03;3.70;;;21.70;64.90;;;;;;4937245;29;20444;-43
2021/07/30 07:46:29;;;;;;;5.90;2.80;;;21.80;63.50;;;;;;4934514;29;20613;-44
2021/07/30 07:48:56;;;;;;;4.60;2.90;;;22.00;62.30;;;;;;4932431;29;20466;-40
2021/07/30 07:51:23;;;;;;;28.57;6.80;;;22.20;62.00;;;;;;4932966;29;20538;-44
2021/07/30 07:53:50;;;;;;;9.90;3.37;;;22.40;61.60;;;;;;4917308;29;21062;-44
2021/07/30 07:56:17;;;;;;;15.90;5.00;;;22.60;61.30;;;;;;4929847;29;20539;-45
2021/07/30 07:58:44;;;;;;;8.13;2.90;;;22.80;61.30;;;;;;4932686;29;21131;-43
2021/07/30 08:01:14;;;;;;;9.53;4.40;;;23.00;60.50;;;;;;4919929;29;20580;-44
2021/07/30 08:03:46;;;;;;;3.43;2.60;;;23.10;59.90;;;;;;4933037;29;20455;-43
2021/07/30 08:06:17;;;;;;;4.50;3.30;;;23.30;59.20;;;;;;4917622;29;21024;-44
2021/07/30 08:08:45;;;;;;;3.23;2.67;;;23.50;58.80;;;;;;4931824;29;20480;-41
2021/07/30 08:11:12;;;;;;;3.63;2.93;;;23.60;58.90;;;;;;4931503;29;21029;-42
2021/07/30 08:13:39;;;;;;;3.53;2.80;;;23.70;58.80;;;;;;4932549;29;20541;-41
2021/07/30 08:16:07;;;;;;;6.37;3.20;;;23.80;58.20;;;;;;4932768;29;20460;-42
2021/07/30 08:18:35;;;;;;;4.20;3.30;;;23.90;57.90;;;;;;4934509;29;20959;-42
2021/07/30 08:21:02;;;;;;;6.77;2.77;;;24.00;57.10;;;;;;4933559;29;21002;-42
2021/07/30 08:23:30;;;;;;;4.17;2.60;;;24.10;57.30;;;;;;4933060;29;20471;-41
2021/07/30 08:25:57;;;;;;;3.07;2.40;;;24.20;56.50;;;;;;4915981;29;20487;-43
2021/07/30 08:28:25;;;;;;;4.67;2.90;;;24.30;54.20;;;;;;4932145;29;20462;-42
2021/07/30 08:30:52;;;;;;;6.77;2.67;;;24.40;54.40;;;;;;4914145;29;20538;-43
2021/07/30 08:33:18;;;;;;;4.47;2.60;;;24.40;54.20;;;;;;4931020;29;20455;-42
2021/07/30 08:35:45;;;;;;;20.30;4.20;;;24.50;54.10;;;;;;4933362;29;20451;-42
2021/07/30 08:38:12;;;;;;;12.33;3.83;;;24.60;54.80;;;;;;4927282;29;20932;-48
2021/07/30 08:40:40;;;;;;;2.73;2.53;;;24.80;54.40;;;;;;4923237;29;20461;-49
2021/07/30 08:43:15;;;;;;;3.20;2.30;;;24.90;53.50;;;;;;4926754;29;20826;-50
2021/07/30 08:45:50;;;;;;;6.20;3.23;;;25.00;53.70;;;;;;4913165;29;20586;-50
2021/07/30 08:48:17;;;;;;;89.27;9.37;;;25.10;52.60;;;;;;4933045;29;20895;-46
2021/07/30 08:50:46;;;;;;;6.83;3.10;;;25.20;53.80;;;;;;4932283;29;20956;-45
2021/07/30 08:53:23;;;;;;;2.70;2.50;;;25.30;54.10;;;;;;4918342;29;20813;-46
2021/07/30 08:55:51;;;;;;;3.73;2.80;;;25.40;53.60;;;;;;4933647;29;20467;-45
2021/07/30 08:58:18;;;;;;;4.13;2.60;;;25.60;53.10;;;;;;4913572;29;20451;-45
2021/07/30 09:00:45;;;;;;;3.03;2.17;;;25.70;51.90;;;;;;4930933;29;20502;-46
2021/07/30 09:03:12;;;;;;;3.73;2.83;;;25.80;51.40;;;;;;4934122;29;20535;-46
2021/07/30 09:05:40;;;;;;;6.10;2.30;;;25.90;51.90;;;;;;4915543;29;20888;-45
2021/07/30 09:08:08;;;;;;;4.10;2.57;;;26.10;51.50;;;;;;4920534;29;20457;-46
2021/07/30 09:10:41;;;;;;;3.40;2.80;;;26.30;50.60;;;;;;4905615;29;20944;-46
2021/07/30 09:13:26;;;;;;;3.20;2.90;;;26.50;50.10;;;;;;4934599;29;20820;-46
2021/07/30 09:16:05;;;;;;;3.53;2.63;;;26.80;49.60;;;;;;4936452;29;20451;-50
2021/07/30 09:18:38;;;;;;;3.23;2.93;;;27.00;48.80;;;;;;4918902;29;20537;-50
2021/07/30 09:21:30;;;;;;;3.20;2.90;;;27.10;48.50;;;;;;4936435;29;20459;-51
2021/07/30 09:23:58;;;;;;;3.33;3.03;;;27.40;48.70;;;;;;4916329;29;20466;-50
2021/07/30 09:26:43;;;;;;;3.07;2.70;;;27.70;48.10;;;;;;4937156;29;20497;-50
2021/07/30 09:29:17;;;;;;;3.90;3.00;;;28.10;47.40;;;;;;4933066;29;20208;-50
2021/07/30 09:31:53;;;;;;;2.87;2.37;;;28.30;46.70;;;;;;4932426;29;20662;-50
2021/07/30 09:34:27;;;;;;;5.53;2.30;;;28.70;45.80;;;;;;4934689;29;20290;-51
2021/07/30 09:36:56;;;;;;;4.77;2.97;;;29.10;45.30;;;;;;4933951;29;20686;-51
2021/07/30 09:39:24;;;;;;;3.80;3.00;;;29.50;44.80;;;;;;4935130;29;20684;-51
2021/07/30 09:42:06;;;;;;;5.17;3.00;;;29.80;44.40;;;;;;4934613;29;20207;-51
2021/07/30 09:44:50;;;;;;;6.07;3.22;;;30.20;43.30;;;;;;4932881;29;20213;-50
2021/07/30 09:47:24;;;;;;;6.22;3.03;;;30.60;43.20;;;;;;4933905;29;20286;-50
2021/07/30 09:49:59;;;;;;;8.50;3.10;;;30.70;43.10;;;;;;4932793;29;20234;-51
2021/07/30 09:52:28;;;;;;;4.22;2.58;;;30.40;43.50;;;;;;4913934;29;20237;-51
2021/07/30 09:54:57;;;;;;;4.82;3.20;;;30.10;44.20;;;;;;4933358;29;20352;-50
2021/07/30 09:57:25;;;;;;;3.47;3.17;;;30.20;43.90;;;;;;4932853;29;20247;-50
2021/07/30 09:59:59;;;;;;;3.13;2.83;;;30.20;42.90;;;;;;4927964;29;20704;-52
2021/07/30 10:02:31;;;;;;;3.38;2.55;;;30.00;42.80;;;;;;4917643;29;20230;-52
2021/07/30 10:05:01;;;;;;;3.43;2.93;;;29.70;43.60;;;;;;4915658;29;20283;-52
2021/07/30 10:07:30;;;;;;;3.93;2.67;;;29.40;44.40;;;;;;4934113;29;20243;-52
2021/07/30 10:10:07;;;;;;;3.40;3.10;;;29.00;44.70;;;;;;4933817;29;20204;-51
2021/07/30 10:12:42;;;;;;;2.53;2.33;;;28.80;45.00;;;;;;4933145;29;20218;-51
2021/07/30 10:15:09;;;;;;;3.80;2.63;;;28.80;45.10;;;;;;4933866;29;20333;-51
2021/07/30 10:17:42;;;;;;;3.20;2.90;;;28.60;45.00;;;;;;4930606;29;20294;-51
2021/07/30 10:20:10;;;;;;;5.43;2.87;;;28.20;46.00;;;;;;4932568;29;20215;-51
2021/07/30 10:22:53;;;;;;;3.20;2.60;;;28.30;45.90;;;;;;4929943;29;20527;-51
2021/07/30 10:25:27;;;;;;;4.27;2.83;;;28.70;45.60;;;;;;4931602;29;20645;-51
2021/07/30 10:28:06;;;;;;;4.03;2.65;;;29.40;45.10;;;;;;4931049;29;20231;-51
2021/07/30 10:30:54;;;;;;;5.45;2.75;;;30.00;42.90;;;;;;4933305;29;20661;-51
2021/07/30 10:33:30;;;;;;;3.90;2.70;;;30.00;43.20;;;;;;4933951;28;20302;-51
2021/07/30 10:35:58;;;;;;;2.60;2.35;;;29.80;43.70;;;;;;4932100;29;20211;-51
2021/07/30 10:38:25;;;;;;;3.38;3.08;;;29.90;43.30;;;;;;4933662;29;20215;-51
2021/07/30 10:40:55;;;;;;;3.45;2.50;;;29.90;43.50;;;;;;4916642;29;20214;-51
2021/07/30 10:43:24;;;;;;;3.90;2.50;;;30.00;43.30;;;;;;4938044;29;20210;-51
2021/07/30 10:46:18;;;;;;;2.78;2.20;;;30.10;43.30;;;;;;4931259;29;20231;-51
2021/07/30 10:48:46;;;;;;;6.30;3.33;;;30.00;43.00;;;;;;4930619;29;20210;-51
2021/07/30 10:51:19;;;;;;;2.90;2.70;;;29.80;43.20;;;;;;4917125;29;20700;-52
2021/07/30 10:53:47;;;;;;;2.83;2.63;;;29.60;44.20;;;;;;4933965;29;20214;-51
2021/07/30 10:56:17;;;;;;;3.58;3.15;;;29.40;43.80;;;;;;4935659;29;20216;-50
2021/07/30 10:58:43;;;;;;;3.30;2.63;;;29.30;44.90;;;;;;4917818;29;20207;-51
2021/07/30 11:01:19;;;;;;;4.17;3.60;;;29.10;43.50;;;;;;4934860;29;20283;-50
2021/07/30 11:03:50;;;;;;;4.13;2.93;;;28.80;44.20;;;;;;4931568;29;20290;-50
2021/07/30 11:06:50;;;;;;;3.37;2.80;;;28.50;45.20;;;;;;4932831;29;20242;-51
2021/07/30 11:09:17;;;;;;;3.60;3.00;;;28.30;45.30;;;;;;4935027;29;20212;-51
2021/07/30 11:11:44;;;;;;;3.67;2.80;;;27.90;46.20;;;;;;4931158;29;20204;-51
2021/07/30 11:14:14;;;;;;;4.23;3.03;;;27.80;46.30;;;;;;4934269;29;20494;-51
2021/07/30 11:16:45;;;;;;;4.53;3.77;;;27.70;45.90;;;;;;4934559;29;20462;-51
2021/07/30 11:19:18;;;;;;;3.30;3.00;;;27.50;46.80;;;;;;4934548;29;20486;-51
2021/07/30 11:21:46;;;;;;;5.27;3.43;;;27.40;47.10;;;;;;4934375;29;20212;-51
2021/07/30 11:24:14;;;;;;;3.60;3.30;;;27.30;46.70;;;;;;4921649;29;20475;-51
2021/07/30 11:26:41;;;;;;;6.70;3.30;;;27.30;45.90;;;;;;4934247;29;20483;-51
2021/07/30 11:29:27;;;;;;;4.70;3.30;;;27.20;46.50;;;;;;4933063;29;20454;-51
2021/07/30 11:32:07;;;;;;;9.20;3.43;;;27.10;47.80;;;;;;4932370;29;20504;-51
2021/07/30 11:34:37;;;;;;;5.33;3.40;;;27.00;48.60;;;;;;4929724;29;20259;-51
2021/07/30 11:37:05;;;;;;;3.50;2.97;;;26.90;48.70;;;;;;4933492;29;20502;-51
2021/07/30 11:39:40;;;;;;;3.43;3.13;;;26.90;47.60;;;;;;4917580;29;20550;-51
2021/07/30 11:42:08;;;;;;;3.47;3.17;;;26.90;48.50;;;;;;4934402;29;20491;-51
2021/07/30 11:45:00;;;;;;;5.43;3.33;;;26.80;47.40;;;;;;4937047;29;20905;-51
2021/07/30 11:47:31;;;;;;;6.43;3.33;;;26.80;47.90;;;;;;4935492;29;21008;-51
2021/07/30 11:50:10;;;;;;;4.67;3.10;;;26.80;48.00;;;;;;4933626;29;20486;-51
2021/07/30 11:52:38;;;;;;;5.17;3.30;;;26.80;47.90;;;;;;4934843;29;20784;-51
2021/07/30 11:55:15;;;;;;;4.17;2.80;;;26.80;48.00;;;;;;4922348;29;20460;-51
2021/07/30 11:57:43;;;;;;;6.00;3.27;;;26.80;48.10;;;;;;4938671;29;20443;-51
2021/07/30 12:00:11;;;;;;;4.10;3.27;;;26.90;47.80;;;;;;4921248;29;20575;-51
2021/07/30 12:02:38;;;;;;;3.03;2.63;;;26.80;47.80;;;;;;4935644;29;20490;-51
2021/07/30 12:05:06;;;;;;;9.00;3.40;;;26.80;47.50;;;;;;4935070;29;20968;-51
2021/07/30 12:07:36;;;;;;;3.87;3.47;;;26.70;48.10;;;;;;4934077;29;20491;-51
2021/07/30 12:10:09;;;;;;;4.53;3.00;;;26.70;47.70;;;;;;4922787;29;20989;-51
2021/07/30 12:12:40;;;;;;;11.60;3.40;;;26.70;48.00;;;;;;4937906;29;20976;-50
2021/07/30 12:15:11;;;;;;;3.80;3.00;;;26.70;47.60;;;;;;4939231;29;20455;-50
2021/07/30 12:17:39;;;;;;;3.10;2.80;;;26.70;47.30;;;;;;4942691;29;20523;-50
2021/07/30 12:20:08;;;;;;;3.23;2.93;;;26.70;47.70;;;;;;4923577;29;20987;-50
2021/07/30 12:22:36;;;;;;;3.20;2.90;;;26.80;47.10;;;;;;4935601;29;20996;-50
2021/07/30 12:25:05;;;;;;;3.90;3.30;;;26.80;48.00;;;;;;4937849;29;20947;-50
2021/07/30 12:27:31;;;;;;;2.70;2.50;;;26.80;49.10;;;;;;4935840;29;20498;-50
2021/07/30 12:29:59;;;;;;;5.67;3.20;;;26.90;47.10;;;;;;4936746;29;20503;-51
2021/07/30 12:32:36;;;;;;;5.00;2.97;;;26.90;47.20;;;;;;4933465;29;20455;-50
2021/07/30 12:35:14;;;;;;;3.80;3.50;;;27.00;47.10;;;;;;4939342;29;20547;-50
2021/07/30 12:38:01;;;;;;;3.60;3.30;;;27.00;46.70;;;;;;4938099;29;20459;-50
2021/07/30 12:40:29;;;;;;;3.70;2.90;;;27.10;46.80;;;;;;4936864;29;20456;-50
2021/07/30 12:43:12;;;;;;;4.07;2.63;;;27.00;47.20;;;;;;4938101;29;20457;-50
2021/07/30 12:45:44;;;;;;;3.53;2.60;;;27.00;47.90;;;;;;4935650;29;20921;-50
2021/07/30 12:48:22;;;;;;;3.87;2.77;;;27.00;47.20;;;;;;4940734;29;20929;-50
2021/07/30 12:50:50;;;;;;;3.47;2.53;;;27.10;46.70;;;;;;4940190;29;20275;-50
2021/07/30 12:53:21;;;;;;;3.70;3.00;;;27.20;46.30;;;;;;4945304;29;20510;-50
2021/07/30 12:56:02;;;;;;;3.63;2.40;;;27.20;46.60;;;;;;4923874;29;20208;-50